Time;durP1;ratioP1;P1;durP2;ratioP2;P2;SDS_P1;SDS_P2;PMS_P1;PMS_P2;Temp;Humidity;BMP_temperature;BMP_pressure;BME280_temperature;BME280_humidity;BME280_pressure;Samples;Min_cycle;Max_cycle;Signal;HPM_P1;HPM_P2
2021/01/13 00:02:38;;;;;;;26.80;10.80;;;-0.30;99.90;;;;;;4415981;28;658799;-61
2021/01/13 00:05:25;;;;;;;23.33;10.53;;;-0.20;99.90;;;;;;4392564;28;660456;-59
2021/01/13 00:08:12;;;;;;;21.97;8.40;;;-0.20;99.90;;;;;;4416536;28;659605;-60
2021/01/13 00:10:59;;;;;;;23.80;10.73;;;-0.20;99.90;;;;;;4398872;28;657628;-60
2021/01/13 00:13:47;;;;;;;27.63;13.67;;;-0.20;99.90;;;;;;4408634;28;660446;-60
2021/01/13 00:16:34;;;;;;;19.97;9.20;;;-0.20;99.90;;;;;;4397371;28;658957;-60
2021/01/13 00:19:21;;;;;;;23.00;11.47;;;-0.10;99.90;;;;;;4417902;28;658477;-60
2021/01/13 00:22:09;;;;;;;26.83;12.00;;;-0.10;99.90;;;;;;4412971;28;658356;-56
2021/01/13 00:24:57;;;;;;;12.10;5.40;;;0.00;99.90;;;;;;4419954;28;658835;-60
2021/01/13 00:27:44;;;;;;;17.08;8.20;;;-0.10;99.90;;;;;;4392539;28;657933;-58
2021/01/13 00:30:32;;;;;;;18.65;7.55;;;-0.10;99.90;;;;;;4421366;28;657894;-60
2021/01/13 00:33:19;;;;;;;23.33;9.93;;;0.00;99.90;;;;;;4392027;28;657786;-60
2021/01/13 00:36:07;;;;;;;31.17;13.70;;;0.00;99.90;;;;;;4419045;28;657690;-61
2021/01/13 00:38:54;;;;;;;21.70;8.90;;;0.00;99.90;;;;;;4392613;28;658556;-58
2021/01/13 00:41:40;;;;;;;22.40;9.63;;;0.10;99.90;;;;;;4416810;28;658911;-60
2021/01/13 00:44:27;;;;;;;17.03;8.47;;;0.00;99.90;;;;;;4412667;28;657770;-60
2021/01/13 00:47:15;;;;;;;25.57;11.57;;;0.10;99.90;;;;;;4399856;28;656503;-60
2021/01/13 00:50:03;;;;;;;15.77;7.60;;;0.00;99.90;;;;;;4411079;28;657690;-61
2021/01/13 00:52:50;;;;;;;17.87;8.87;;;0.00;99.90;;;;;;4397310;28;656496;-60
2021/01/13 00:55:37;;;;;;;22.43;9.50;;;0.00;99.90;;;;;;4410109;28;657489;-61
2021/01/13 00:58:24;;;;;;;23.73;9.97;;;-0.10;99.90;;;;;;4399409;28;656582;-58
2021/01/13 01:01:11;;;;;;;18.03;8.90;;;0.10;99.90;;;;;;4399198;28;658162;-60
2021/01/13 01:03:59;;;;;;;19.33;9.13;;;0.10;99.90;;;;;;4400240;28;657279;-61
2021/01/13 01:06:47;;;;;;;22.53;9.90;;;0.10;99.90;;;;;;4380933;28;657986;-61
2021/01/13 01:09:34;;;;;;;16.50;8.73;;;0.10;99.90;;;;;;4367568;28;656627;-61
2021/01/13 01:12:21;;;;;;;15.73;7.90;;;0.10;99.90;;;;;;4401061;28;658756;-61
2021/01/13 01:15:09;;;;;;;19.10;8.77;;;0.10;99.90;;;;;;4383358;28;656361;-59
2021/01/13 01:17:56;;;;;;;20.03;8.93;;;0.10;99.90;;;;;;4404152;28;657641;-60
2021/01/13 01:20:45;;;;;;;18.83;9.18;;;0.10;99.90;;;;;;4373187;28;658043;-56
2021/01/13 01:23:31;;;;;;;13.13;7.47;;;0.00;99.90;;;;;;4399863;28;657051;-61
2021/01/13 01:26:20;;;;;;;20.85;8.25;;;0.20;99.90;;;;;;4384874;28;656618;-59
2021/01/13 01:29:07;;;;;;;9.95;4.00;;;0.10;99.90;;;;;;4399728;28;657621;-61
2021/01/13 01:31:54;;;;;;;17.40;7.88;;;0.00;99.90;;;;;;4369729;28;655552;-57
2021/01/13 01:34:41;;;;;;;12.83;6.43;;;0.10;99.90;;;;;;4401879;28;657991;-60
2021/01/13 01:37:33;;;;;;;18.40;8.38;;;0.20;99.90;;;;;;4394078;28;657245;-61
2021/01/13 01:40:20;;;;;;;16.67;7.33;;;0.10;99.90;;;;;;4353993;28;657750;-60
2021/01/13 01:43:07;;;;;;;15.87;6.50;;;0.10;99.90;;;;;;4387540;28;656604;-61
2021/01/13 01:45:54;;;;;;;9.67;5.03;;;0.10;99.90;;;;;;4379938;28;656417;-60
2021/01/13 01:48:49;;;;;;;4.40;2.10;;;0.20;99.90;;;;;;4404521;28;656362;-61
2021/01/13 01:51:39;;;;;;;10.63;5.80;;;0.30;99.90;;;;;;4373352;28;656431;-60
2021/01/13 01:54:27;;;;;;;11.75;6.13;;;0.20;99.90;;;;;;4380491;28;656448;-61
2021/01/13 01:57:14;;;;;;;7.50;4.13;;;0.00;99.90;;;;;;4373240;28;657812;-61
2021/01/13 02:00:01;;;;;;;10.53;5.97;;;0.00;99.90;;;;;;4394356;28;657204;-61
2021/01/13 02:02:52;;;;;;;10.87;6.07;;;0.00;99.90;;;;;;4373818;28;656564;-59
2021/01/13 02:05:39;;;;;;;9.43;5.13;;;-0.20;99.90;;;;;;4374028;28;656295;-60
2021/01/13 02:08:26;;;;;;;9.53;3.53;;;-0.20;99.90;;;;;;4401064;28;656568;-60
2021/01/13 02:11:16;;;;;;;11.40;5.27;;;-0.20;99.90;;;;;;4377094;28;656617;-56
2021/01/13 02:14:04;;;;;;;6.07;3.50;;;-0.20;99.90;;;;;;4383456;28;657578;-57
2021/01/13 02:16:52;;;;;;;8.20;4.33;;;-0.20;99.90;;;;;;4397041;28;657138;-60
2021/01/13 02:20:00;;;;;;;8.30;4.67;;;-0.20;99.90;;;;;;4379987;28;657427;-59
2021/01/13 02:23:01;;;;;;;9.23;4.23;;;-0.20;99.90;;;;;;4372395;28;657660;-61
2021/01/13 02:26:37;;;;;;;5.57;2.63;;;-0.20;99.90;;;;;;4370691;28;657748;-60
2021/01/13 02:29:34;;;;;;;3.43;2.20;;;-0.30;99.90;;;;;;4343795;28;656793;-60
2021/01/13 02:32:23;;;;;;;6.37;3.60;;;-0.40;99.90;;;;;;4374999;28;657185;-61
2021/01/13 02:35:15;;;;;;;9.30;4.17;;;-0.50;99.90;;;;;;4372150;28;656904;-61
2021/01/13 02:38:08;;;;;;;6.03;2.97;;;-0.70;99.90;;;;;;4374156;28;657477;-61
2021/01/13 02:40:54;;;;;;;9.40;4.63;;;-0.70;99.90;;;;;;4352779;28;657344;-60
2021/01/13 02:43:52;;;;;;;12.07;4.77;;;-0.60;99.90;;;;;;4389524;28;657171;-61
2021/01/13 02:46:51;;;;;;;7.43;3.67;;;-0.60;99.90;;;;;;4354204;28;657597;-59
2021/01/13 02:49:39;;;;;;;10.33;4.40;;;-0.50;99.90;;;;;;4368614;28;656420;-61
2021/01/13 02:52:26;;;;;;;6.97;3.87;;;-0.70;99.90;;;;;;4362948;28;658976;-60
2021/01/13 02:55:14;;;;;;;10.43;5.37;;;-0.70;99.90;;;;;;4390317;28;656610;-57
2021/01/13 02:58:01;;;;;;;10.57;5.40;;;-0.70;99.90;;;;;;4392172;28;658299;-61
2021/01/13 03:00:48;;;;;;;10.82;5.63;;;-0.80;99.90;;;;;;4386848;28;658706;-61
2021/01/13 03:03:36;;;;;;;13.23;5.67;;;-0.70;99.90;;;;;;4368678;28;657603;-60
2021/01/13 03:06:24;;;;;;;6.75;2.97;;;-0.70;99.90;;;;;;4381319;28;657534;-59
2021/01/13 03:09:11;;;;;;;11.15;4.90;;;-0.60;99.90;;;;;;4396623;28;656577;-61
2021/01/13 03:11:59;;;;;;;12.80;5.03;;;-0.50;99.90;;;;;;4386831;28;658303;-59
2021/01/13 03:14:52;;;;;;;12.50;5.27;;;-0.60;99.90;;;;;;4399076;28;657471;-60
2021/01/13 03:17:59;;;;;;;10.40;4.83;;;-0.70;99.90;;;;;;4354688;28;657653;-60
2021/01/13 03:20:51;;;;;;;15.23;5.77;;;-0.50;99.90;;;;;;4369562;28;658249;-61
2021/01/13 03:23:45;;;;;;;13.53;6.27;;;-0.60;99.90;;;;;;4378998;28;657809;-61
2021/01/13 03:26:34;;;;;;;12.70;6.23;;;-0.60;99.90;;;;;;4373502;28;657734;-61
2021/01/13 03:29:21;;;;;;;14.07;6.78;;;-0.60;99.90;;;;;;4375610;28;659111;-61
2021/01/13 03:32:09;;;;;;;18.37;7.47;;;-0.50;99.90;;;;;;4394855;28;658356;-59
2021/01/13 03:35:07;;;;;;;16.87;7.37;;;-0.50;99.90;;;;;;4397400;28;658612;-61
2021/01/13 03:37:57;;;;;;;14.93;7.60;;;-0.70;99.90;;;;;;4383063;28;657592;-61
2021/01/13 03:40:49;;;;;;;15.50;5.63;;;-0.60;99.90;;;;;;4377455;28;657259;-60
2021/01/13 03:43:37;;;;;;;17.33;8.00;;;-0.60;99.90;;;;;;4382602;28;658656;-57
2021/01/13 03:46:24;;;;;;;13.83;7.67;;;-0.60;99.90;;;;;;4384442;28;658775;-54
2021/01/13 03:49:11;;;;;;;19.27;8.50;;;-0.50;99.90;;;;;;4401378;28;658380;-61
2021/01/13 03:52:01;;;;;;;13.93;5.73;;;-0.60;99.90;;;;;;4400848;28;657839;-61
2021/01/13 03:54:50;;;;;;;17.00;8.25;;;-0.60;99.90;;;;;;4374562;28;657864;-59
2021/01/13 03:57:48;;;;;;;16.92;8.45;;;-0.40;99.90;;;;;;4381631;28;658867;-61
2021/01/13 04:00:40;;;;;;;18.17;7.87;;;-0.50;99.90;;;;;;4364940;28;659095;-61
2021/01/13 04:03:28;;;;;;;20.93;9.67;;;-0.50;99.90;;;;;;4395364;28;659119;-61
2021/01/13 04:06:15;;;;;;;26.40;9.50;;;-0.60;99.90;;;;;;4399126;28;659637;-61
2021/01/13 04:09:03;;;;;;;23.63;9.70;;;-0.60;99.90;;;;;;4417941;28;657178;-60
2021/01/13 04:11:51;;;;;;;19.65;9.00;;;-0.70;99.90;;;;;;4391067;28;658242;-60
2021/01/13 04:14:49;;;;;;;19.00;9.35;;;-0.50;99.90;;;;;;4404127;28;658269;-61
2021/01/13 04:17:36;;;;;;;20.87;9.60;;;-0.60;99.90;;;;;;4355324;28;657693;-61
2021/01/13 04:20:23;;;;;;;18.13;9.30;;;-0.60;99.90;;;;;;4412510;28;658521;-61
2021/01/13 04:23:11;;;;;;;22.13;8.50;;;-0.60;99.90;;;;;;4394729;28;658204;-61
2021/01/13 04:25:58;;;;;;;12.83;5.83;;;-0.50;99.90;;;;;;4412472;28;657424;-61
2021/01/13 04:28:48;;;;;;;17.43;6.53;;;-0.50;99.90;;;;;;4386508;28;658684;-61
2021/01/13 04:31:35;;;;;;;19.17;9.55;;;-0.40;99.90;;;;;;4398051;28;657529;-60
2021/01/13 04:34:22;;;;;;;27.67;13.90;;;-0.40;99.90;;;;;;4416113;28;658376;-61
2021/01/13 04:37:09;;;;;;;20.50;10.73;;;-0.50;99.90;;;;;;4397640;28;658552;-61
2021/01/13 04:39:56;;;;;;;25.17;12.07;;;-0.50;99.90;;;;;;4400807;28;659193;-61
2021/01/13 04:42:53;;;;;;;24.70;12.30;;;-0.50;99.90;;;;;;4401439;28;658717;-59
2021/01/13 04:45:42;;;;;;;23.83;13.17;;;-0.50;99.90;;;;;;4358686;28;659761;-60
2021/01/13 04:48:33;;;;;;;26.27;11.63;;;-0.40;99.90;;;;;;4384520;28;658414;-60
2021/01/13 04:51:20;;;;;;;22.60;10.73;;;-0.40;99.90;;;;;;4393614;28;659280;-61
2021/01/13 04:54:09;;;;;;;22.33;11.83;;;-0.40;99.90;;;;;;4415829;28;658541;-61
2021/01/13 04:57:16;;;;;;;16.27;7.90;;;-0.50;99.90;;;;;;4391409;28;659805;-61
2021/01/13 05:00:08;;;;;;;18.00;9.03;;;-0.40;99.90;;;;;;4371839;28;657578;-54
2021/01/13 05:03:26;;;;;;;17.53;8.77;;;-0.40;99.90;;;;;;4387339;28;658882;-60
2021/01/13 05:06:42;;;;;;;14.00;6.82;;;-0.50;99.90;;;;;;4389880;28;657750;-55
2021/01/13 05:09:34;;;;;;;10.03;5.43;;;-0.40;99.90;;;;;;4357840;28;657990;-61
2021/01/13 05:12:21;;;;;;;20.40;9.60;;;-0.40;99.90;;;;;;4394178;28;658887;-61
2021/01/13 05:15:10;;;;;;;13.60;7.30;;;-0.50;99.90;;;;;;4406367;28;657464;-57
2021/01/13 05:18:02;;;;;;;10.77;4.83;;;-0.40;99.90;;;;;;4416869;28;658796;-61
2021/01/13 05:20:55;;;;;;;10.73;6.10;;;-0.50;99.90;;;;;;4370031;28;658339;-60
2021/01/13 05:23:43;;;;;;;7.83;4.03;;;-0.50;99.90;;;;;;4387890;28;658747;-61
2021/01/13 05:26:30;;;;;;;16.70;6.97;;;-0.60;99.90;;;;;;4392331;28;658540;-61
2021/01/13 05:29:36;;;;;;;8.37;3.50;;;-0.60;99.90;;;;;;4416801;28;657799;-61
2021/01/13 05:32:23;;;;;;;13.57;6.30;;;-0.60;99.90;;;;;;4389212;28;657314;-61
2021/01/13 05:35:10;;;;;;;11.27;4.60;;;-0.60;99.90;;;;;;4395344;28;658401;-60
2021/01/13 05:38:12;;;;;;;12.70;5.40;;;-0.70;99.90;;;;;;4411038;28;657634;-60
2021/01/13 05:40:59;;;;;;;9.48;5.05;;;-0.90;99.90;;;;;;4374559;28;657604;-57
2021/01/13 05:43:47;;;;;;;6.72;3.28;;;-1.00;99.90;;;;;;4418053;28;656713;-60
2021/01/13 05:46:43;;;;;;;5.27;2.47;;;-0.90;99.90;;;;;;4397865;28;657120;-61
2021/01/13 05:49:30;;;;;;;2.10;1.37;;;-0.90;99.90;;;;;;4367043;28;657735;-59
2021/01/13 05:52:18;;;;;;;6.63;2.23;;;-0.90;99.90;;;;;;4412330;28;657216;-60
2021/01/13 05:55:07;;;;;;;6.18;1.88;;;-0.90;99.90;;;;;;4399223;28;656577;-60
2021/01/13 05:57:55;;;;;;;4.00;1.33;;;-0.90;99.90;;;;;;4397669;28;656331;-60
2021/01/13 06:00:43;;;;;;;2.30;1.23;;;-1.00;99.90;;;;;;4412025;28;657194;-60
2021/01/13 06:03:30;;;;;;;4.80;1.63;;;-0.90;99.90;;;;;;4389590;28;656588;-60
2021/01/13 06:06:17;;;;;;;4.97;1.40;;;-1.00;99.90;;;;;;4413592;28;656229;-61
2021/01/13 06:09:05;;;;;;;4.87;1.53;;;-1.20;99.90;;;;;;4397924;28;657168;-60
2021/01/13 06:11:54;;;;;;;8.97;2.20;;;-1.00;99.90;;;;;;4407500;28;657029;-60
2021/01/13 06:14:41;;;;;;;4.93;1.97;;;-1.10;99.90;;;;;;4385341;28;656875;-61
2021/01/13 06:17:29;;;;;;;8.20;3.20;;;-1.10;99.90;;;;;;4387084;28;656658;-58
2021/01/13 06:20:19;;;;;;;7.73;2.80;;;-1.20;99.90;;;;;;4412597;28;657761;-61
2021/01/13 06:23:06;;;;;;;1.17;0.97;;;-1.30;99.90;;;;;;4390651;28;656771;-61
2021/01/13 06:25:53;;;;;;;4.40;2.05;;;-1.30;99.90;;;;;;4415978;28;657331;-61
2021/01/13 06:29:13;;;;;;;8.53;2.33;;;-1.20;99.90;;;;;;4398327;28;656657;-60
2021/01/13 06:32:00;;;;;;;6.67;3.13;;;-1.20;99.90;;;;;;4398484;28;656647;-61
2021/01/13 06:34:57;;;;;;;9.23;2.80;;;-1.20;99.90;;;;;;4416505;28;657980;-61
2021/01/13 06:37:48;;;;;;;7.77;2.90;;;-1.30;99.90;;;;;;4371550;28;657466;-61
2021/01/13 06:40:35;;;;;;;8.25;3.15;;;-1.20;99.90;;;;;;4391388;28;656573;-60
2021/01/13 06:43:21;;;;;;;10.70;3.67;;;-1.30;99.90;;;;;;4409175;28;657110;-60
2021/01/13 06:46:19;;;;;;;9.43;4.03;;;-1.40;99.90;;;;;;4399227;28;660794;-58
2021/01/13 06:49:15;;;;;;;5.20;1.90;;;-1.50;99.90;;;;;;4369688;28;658822;-60
2021/01/13 06:52:07;;;;;;;12.73;4.17;;;-1.50;99.90;;;;;;4386334;28;657583;-60
2021/01/13 06:54:54;;;;;;;11.63;3.30;;;-1.40;99.90;;;;;;4370501;28;659307;-60
2021/01/13 06:57:41;;;;;;;4.57;2.10;;;-1.50;99.90;;;;;;4408890;28;660897;-60
2021/01/13 07:00:29;;;;;;;5.87;2.53;;;-1.50;99.90;;;;;;4413172;28;657580;-57
2021/01/13 07:03:27;;;;;;;7.93;3.40;;;-1.30;99.90;;;;;;4410513;28;657865;-60
2021/01/13 07:06:14;;;;;;;5.00;2.53;;;-1.20;99.90;;;;;;4373893;28;658836;-58
2021/01/13 07:09:01;;;;;;;5.70;2.30;;;-1.30;99.90;;;;;;4415506;28;658728;-60
2021/01/13 07:11:48;;;;;;;9.67;4.00;;;-1.30;99.90;;;;;;4414531;28;658530;-61
2021/01/13 07:14:37;;;;;;;8.53;3.47;;;-1.30;99.90;;;;;;4390355;28;657997;-61
2021/01/13 07:17:25;;;;;;;8.20;3.95;;;-1.30;99.90;;;;;;4395972;28;657547;-58
2021/01/13 07:20:14;;;;;;;5.83;3.03;;;-1.20;99.90;;;;;;4418240;28;658624;-61
2021/01/13 07:23:01;;;;;;;10.80;4.60;;;-1.20;99.90;;;;;;4396480;28;659457;-60
2021/01/13 07:25:49;;;;;;;3.77;1.80;;;-1.20;99.90;;;;;;4409034;28;658723;-59
2021/01/13 07:28:36;;;;;;;17.13;5.17;;;-1.10;99.90;;;;;;4410700;28;659018;-61
2021/01/13 07:31:28;;;;;;;11.27;4.77;;;-1.20;99.90;;;;;;4414122;28;660093;-61
2021/01/13 07:34:20;;;;;;;18.07;5.83;;;-1.20;99.90;;;;;;4394730;28;658536;-60
2021/01/13 07:37:10;;;;;;;17.67;5.60;;;-1.30;99.90;;;;;;4386914;28;660060;-60
2021/01/13 07:40:31;;;;;;;12.00;3.67;;;-1.20;99.90;;;;;;4390200;28;658725;-61
2021/01/13 07:43:26;;;;;;;17.77;6.10;;;-1.00;99.90;;;;;;4384681;28;658871;-56
2021/01/13 07:46:18;;;;;;;15.47;6.57;;;-0.90;99.90;;;;;;4378465;28;659965;-67
2021/01/13 07:49:18;;;;;;;10.80;4.40;;;-0.80;99.90;;;;;;4384257;28;659592;-68
2021/01/13 07:52:05;;;;;;;47.53;7.70;;;-0.80;99.90;;;;;;4370421;28;658886;-67
2021/01/13 07:54:52;;;;;;;13.73;5.00;;;-0.80;99.90;;;;;;4400642;28;659269;-67
2021/01/13 07:57:45;;;;;;;12.57;5.43;;;-0.60;99.90;;;;;;4386631;28;658956;-67
2021/01/13 08:00:35;;;;;;;17.63;6.80;;;-0.60;99.90;;;;;;4387804;28;658862;-67
2021/01/13 08:03:59;;;;;;;20.57;7.13;;;-0.80;99.90;;;;;;4383289;28;658743;-67
2021/01/13 08:06:47;;;;;;;15.90;6.50;;;-0.70;99.90;;;;;;4359271;28;659472;-68
2021/01/13 08:09:35;;;;;;;15.10;5.17;;;-0.70;99.90;;;;;;4392354;28;658184;-67
2021/01/13 08:12:54;;;;;;;14.63;6.60;;;-0.60;99.90;;;;;;4415277;28;658746;-67
2021/01/13 08:16:45;;;;;;;14.00;5.37;;;-0.60;99.90;;;;;;4364105;28;659561;-67
2021/01/13 08:20:04;;;;;;;10.10;5.07;;;-0.60;99.90;;;;;;4387629;28;659787;-67
2021/01/13 08:23:03;;;;;;;13.15;4.88;;;-0.40;99.90;;;;;;4384386;28;658886;-67
2021/01/13 08:25:53;;;;;;;15.43;5.90;;;-0.40;99.90;;;;;;4379126;28;658167;-66
2021/01/13 08:28:41;;;;;;;15.47;5.13;;;-0.30;99.90;;;;;;4396250;28;659196;-67
2021/01/13 08:31:29;;;;;;;14.93;5.70;;;-0.30;99.90;;;;;;4400200;28;658679;-66
2021/01/13 08:34:16;;;;;;;14.23;5.87;;;-0.20;99.90;;;;;;4406870;28;659456;-68
2021/01/13 08:37:03;;;;;;;17.53;6.17;;;-0.20;99.90;;;;;;4415703;28;658803;-67
2021/01/13 08:39:53;;;;;;;14.13;5.80;;;0.00;99.90;;;;;;4391813;28;659969;-68
2021/01/13 08:42:39;;;;;;;4.67;2.60;;;0.20;99.90;;;;;;4396039;28;657356;-66
2021/01/13 08:45:34;;;;;;;13.30;5.23;;;0.30;99.90;;;;;;4416744;28;657363;-67
2021/01/13 08:48:22;;;;;;;18.50;6.37;;;0.40;99.90;;;;;;4389746;28;658001;-67
2021/01/13 08:51:13;;;;;;;24.53;7.63;;;0.10;99.90;;;;;;4394313;28;658138;-66
2021/01/13 08:54:21;;;;;;;15.52;5.93;;;0.10;99.90;;;;;;4389664;28;657708;-67
2021/01/13 08:57:09;;;;;;;20.43;7.13;;;0.00;99.90;;;;;;4390236;28;658709;-67
2021/01/13 08:59:57;;;;;;;27.00;10.07;;;-0.10;99.90;;;;;;4392914;28;658372;-67
2021/01/13 09:02:52;;;;;;;7.82;4.05;;;-0.10;99.90;;;;;;4392511;28;659349;-67
2021/01/13 09:05:40;;;;;;;23.33;9.67;;;0.10;99.90;;;;;;4373068;28;658093;-67
2021/01/13 09:08:31;;;;;;;22.40;9.20;;;0.20;99.90;;;;;;4413162;28;658474;-67
2021/01/13 09:11:32;;;;;;;24.47;8.30;;;0.20;99.90;;;;;;4386377;28;657815;-67
2021/01/13 09:14:19;;;;;;;21.47;7.63;;;0.50;99.90;;;;;;4370536;28;657702;-66
2021/01/13 09:17:13;;;;;;;14.80;7.73;;;0.50;99.90;;;;;;4414701;28;658983;-67
2021/01/13 09:20:02;;;;;;;24.97;9.87;;;0.40;99.90;;;;;;4370232;28;657878;-67
2021/01/13 09:22:50;;;;;;;26.80;11.17;;;0.50;99.90;;;;;;4390837;28;657787;-67
2021/01/13 09:25:45;;;;;;;19.37;8.50;;;0.40;99.90;;;;;;4406863;28;658880;-67
2021/01/13 09:28:32;;;;;;;22.77;9.27;;;0.20;99.90;;;;;;4390050;28;657986;-67
2021/01/13 09:31:19;;;;;;;28.80;12.03;;;0.10;99.90;;;;;;4392800;28;657533;-67
2021/01/13 09:34:07;;;;;;;26.30;10.83;;;0.10;99.90;;;;;;4416666;28;659630;-67
2021/01/13 09:36:58;;;;;;;30.93;11.90;;;0.20;99.90;;;;;;4391209;28;659033;-66
2021/01/13 09:40:08;;;;;;;17.87;5.30;;;0.00;99.90;;;;;;4386931;28;659661;-66
2021/01/13 09:42:56;;;;;;;18.83;8.10;;;0.10;99.90;;;;;;4365746;28;658341;-66
2021/01/13 09:45:43;;;;;;;29.47;10.97;;;-0.10;99.90;;;;;;4408675;28;657784;-67
2021/01/13 09:48:31;;;;;;;11.33;5.73;;;-0.40;99.90;;;;;;4393116;28;660864;-67
2021/01/13 09:51:19;;;;;;;21.17;9.47;;;-0.40;99.90;;;;;;4407193;28;658774;-67
2021/01/13 09:54:08;;;;;;;14.03;6.20;;;-0.50;99.90;;;;;;4379372;28;659522;-67
2021/01/13 09:56:55;;;;;;;35.43;10.83;;;-0.50;99.90;;;;;;4385600;28;658903;-67
2021/01/13 09:59:44;;;;;;;36.53;15.17;;;-0.70;99.90;;;;;;4412416;28;660071;-68
2021/01/13 10:02:31;;;;;;;38.93;15.67;;;-0.50;99.90;;;;;;4386271;28;660676;-67
2021/01/13 10:05:18;;;;;;;28.23;10.55;;;-0.50;99.90;;;;;;4411640;28;659884;-67
2021/01/13 10:08:06;;;;;;;24.80;9.93;;;-0.30;99.90;;;;;;4393433;28;661145;-67
2021/01/13 10:10:56;;;;;;;31.07;12.13;;;-0.20;99.90;;;;;;4402591;28;660295;-67
2021/01/13 10:13:43;;;;;;;43.58;15.95;;;-0.20;99.90;;;;;;4385787;28;659852;-67
2021/01/13 10:16:30;;;;;;;39.23;14.03;;;-0.20;99.90;;;;;;4381405;28;660612;-67
2021/01/13 10:19:19;;;;;;;28.20;12.53;;;-0.40;99.90;;;;;;4400623;28;660133;-67
2021/01/13 10:22:07;;;;;;;42.17;15.47;;;-0.20;99.90;;;;;;4387270;28;660518;-67
2021/01/13 10:24:54;;;;;;;32.60;11.73;;;0.00;99.90;;;;;;4391676;28;659423;-66
2021/01/13 10:27:43;;;;;;;40.83;16.90;;;0.20;99.90;;;;;;4398627;28;659477;-68
2021/01/13 10:30:31;;;;;;;15.87;6.17;;;0.30;99.90;;;;;;4380946;28;658726;-67
2021/01/13 10:33:18;;;;;;;48.93;17.40;;;0.30;99.90;;;;;;4408665;28;657657;-67
2021/01/13 10:36:06;;;;;;;45.40;17.60;;;0.30;99.90;;;;;;4389295;28;658687;-67
2021/01/13 10:38:53;;;;;;;44.85;17.13;;;0.30;99.90;;;;;;4414546;28;658927;-67
2021/01/13 10:41:41;;;;;;;25.17;8.60;;;0.30;99.90;;;;;;4389399;28;658992;-68
2021/01/13 10:44:29;;;;;;;34.38;14.77;;;0.30;99.90;;;;;;4413143;28;657743;-67
2021/01/13 10:47:16;;;;;;;39.80;16.02;;;0.40;99.90;;;;;;4382639;28;659342;-67
2021/01/13 10:50:04;;;;;;;37.87;15.00;;;0.30;99.90;;;;;;4406616;28;659459;-68
2021/01/13 10:52:55;;;;;;;46.77;17.17;;;0.20;99.90;;;;;;4372892;28;658639;-67
2021/01/13 10:55:44;;;;;;;37.33;14.57;;;0.10;99.90;;;;;;4389380;28;659881;-67
2021/01/13 10:58:31;;;;;;;23.00;8.83;;;0.10;99.90;;;;;;4386641;28;659565;-67
2021/01/13 11:01:20;;;;;;;35.57;12.97;;;0.10;99.90;;;;;;4410438;28;657436;-67
2021/01/13 11:04:37;;;;;;;30.57;12.70;;;-0.20;99.90;;;;;;4407993;28;658991;-68
2021/01/13 11:07:24;;;;;;;25.63;7.40;;;-0.10;99.90;;;;;;4362789;28;659980;-67
2021/01/13 11:10:12;;;;;;;35.57;12.57;;;0.00;99.90;;;;;;4406224;28;659764;-67
2021/01/13 11:13:00;;;;;;;14.20;5.77;;;-0.10;99.90;;;;;;4385717;28;658979;-67
2021/01/13 11:15:47;;;;;;;15.43;6.33;;;0.00;99.90;;;;;;4407718;28;659032;-67
2021/01/13 11:18:35;;;;;;;34.10;13.13;;;0.00;99.90;;;;;;4394278;28;657615;-66
2021/01/13 11:21:22;;;;;;;35.40;14.07;;;-0.10;99.90;;;;;;4402134;28;659158;-67
2021/01/13 11:24:11;;;;;;;38.00;14.80;;;-0.20;99.90;;;;;;4392372;28;659518;-67
2021/01/13 11:26:59;;;;;;;35.87;14.70;;;-0.40;99.90;;;;;;4407320;28;659854;-67
2021/01/13 11:29:47;;;;;;;36.20;14.17;;;-0.30;99.90;;;;;;4388144;28;660126;-67
2021/01/13 11:32:34;;;;;;;43.43;16.23;;;-0.40;99.90;;;;;;4390302;28;659586;-67
2021/01/13 11:35:29;;;;;;;47.57;19.10;;;-0.20;99.90;;;;;;4408280;28;660547;-67
2021/01/13 11:38:55;;;;;;;27.67;8.17;;;-0.30;99.90;;;;;;4380446;28;659803;-68
2021/01/13 11:42:16;;;;;;;24.63;11.03;;;-0.20;99.90;;;;;;4389836;28;659200;-67
2021/01/13 11:45:13;;;;;;;41.43;16.33;;;-0.30;99.90;;;;;;4310763;28;659735;-68
2021/01/13 11:48:05;;;;;;;44.83;15.47;;;-0.40;99.90;;;;;;4295351;28;660150;-67
2021/01/13 11:50:57;;;;;;;46.73;17.60;;;-0.50;99.90;;;;;;4316794;28;659937;-67
2021/01/13 11:53:45;;;;;;;47.80;15.90;;;-0.50;99.90;;;;;;4298693;28;660271;-66
2021/01/13 11:56:33;;;;;;;39.87;14.57;;;-0.60;99.90;;;;;;4340979;28;659253;-67
2021/01/13 11:59:29;;;;;;;19.87;9.23;;;-0.70;99.90;;;;;;4317962;28;659571;-67
2021/01/13 12:02:20;;;;;;;34.13;11.63;;;-0.60;99.90;;;;;;4295305;28;658675;-67
2021/01/13 12:05:08;;;;;;;52.17;19.33;;;-0.60;99.90;;;;;;4321581;28;661178;-67
2021/01/13 12:08:03;;;;;;;47.67;19.60;;;-0.70;99.90;;;;;;4315427;28;659736;-67
2021/01/13 12:10:55;;;;;;;23.67;9.60;;;-0.70;99.90;;;;;;4298845;28;659954;-67
2021/01/13 12:13:44;;;;;;;41.10;16.27;;;-0.70;99.90;;;;;;4323118;28;659506;-67
2021/01/13 12:16:31;;;;;;;18.77;8.47;;;-0.70;99.90;;;;;;4319226;28;660283;-66
2021/01/13 12:19:33;;;;;;;40.13;15.80;;;-0.50;99.90;;;;;;4345141;28;658688;-67
2021/01/13 12:22:33;;;;;;;33.85;13.90;;;-0.50;99.90;;;;;;4290499;28;660618;-67
2021/01/13 12:25:25;;;;;;;35.13;14.70;;;-0.60;99.90;;;;;;4359280;28;661070;-67
2021/01/13 12:28:12;;;;;;;40.77;16.07;;;-0.60;99.90;;;;;;4392933;28;660027;-66
2021/01/13 12:30:59;;;;;;;31.17;13.73;;;-0.60;99.90;;;;;;4389975;28;659912;-66
2021/01/13 12:33:50;;;;;;;39.33;16.67;;;-0.70;99.90;;;;;;4413076;28;661033;-68
2021/01/13 12:36:38;;;;;;;44.63;14.00;;;-0.70;99.90;;;;;;4387132;28;661207;-67
2021/01/13 12:39:25;;;;;;;35.60;13.57;;;-0.60;99.90;;;;;;4388568;28;659657;-68
2021/01/13 12:42:17;;;;;;;33.27;12.67;;;-0.50;99.90;;;;;;4404141;28;659666;-67
2021/01/13 12:45:05;;;;;;;34.17;14.87;;;-0.50;99.90;;;;;;4369102;28;659994;-67
2021/01/13 12:47:55;;;;;;;34.70;14.10;;;-0.60;99.90;;;;;;4412733;28;660638;-67
2021/01/13 12:50:42;;;;;;;23.40;8.87;;;-0.50;99.90;;;;;;4388263;28;660544;-67
2021/01/13 12:53:29;;;;;;;30.67;13.33;;;-0.40;99.90;;;;;;4394490;28;658664;-67
2021/01/13 12:56:23;;;;;;;27.20;10.47;;;-0.40;99.90;;;;;;4408502;28;660848;-67
2021/01/13 12:59:11;;;;;;;25.73;9.83;;;-0.40;99.90;;;;;;4367439;28;660672;-68
2021/01/13 13:01:59;;;;;;;30.43;12.80;;;-0.40;99.90;;;;;;4406679;28;659701;-66
2021/01/13 13:04:46;;;;;;;27.17;10.73;;;-0.40;99.90;;;;;;4409538;28;659395;-67
2021/01/13 13:07:34;;;;;;;32.63;12.82;;;-0.40;99.90;;;;;;4413386;28;660164;-68
2021/01/13 13:10:21;;;;;;;34.23;14.23;;;-0.30;99.90;;;;;;4387091;28;660713;-67
2021/01/13 13:13:08;;;;;;;24.10;9.57;;;-0.30;99.90;;;;;;4412469;28;659775;-67
2021/01/13 13:15:56;;;;;;;34.00;12.20;;;-0.30;99.90;;;;;;4387444;28;658675;-67
2021/01/13 13:18:43;;;;;;;37.88;15.18;;;-0.20;99.90;;;;;;4398633;28;660333;-69
2021/01/13 13:21:30;;;;;;;36.75;13.93;;;-0.10;99.90;;;;;;4392294;28;659808;-67
2021/01/13 13:24:17;;;;;;;34.15;12.48;;;-0.20;99.90;;;;;;4402102;28;660815;-68
2021/01/13 13:27:05;;;;;;;33.67;12.87;;;-0.10;99.90;;;;;;4386289;28;659688;-67
2021/01/13 13:29:52;;;;;;;33.87;13.10;;;0.00;99.90;;;;;;4404774;28;660493;-68
2021/01/13 13:32:40;;;;;;;42.70;14.80;;;0.00;99.90;;;;;;4385436;28;658728;-68
2021/01/13 13:35:27;;;;;;;37.47;14.70;;;0.20;99.90;;;;;;4413719;28;658034;-68
2021/01/13 13:38:14;;;;;;;30.53;12.73;;;0.10;99.90;;;;;;4389628;28;658512;-67
2021/01/13 13:41:01;;;;;;;37.47;15.20;;;0.10;99.90;;;;;;4410907;28;659421;-67
2021/01/13 13:43:49;;;;;;;38.93;15.03;;;0.20;99.90;;;;;;4396688;28;659145;-66
2021/01/13 13:46:36;;;;;;;45.00;16.63;;;0.20;99.90;;;;;;4417730;28;659670;-67
2021/01/13 13:49:24;;;;;;;42.03;18.05;;;0.30;99.90;;;;;;4413445;28;658403;-68
2021/01/13 13:52:11;;;;;;;43.83;17.17;;;0.20;99.90;;;;;;4394478;28;660051;-68
2021/01/13 13:54:58;;;;;;;51.90;19.07;;;0.20;99.90;;;;;;4413473;28;658734;-69
2021/01/13 13:57:45;;;;;;;45.20;19.13;;;0.20;99.90;;;;;;4377874;28;658974;-67
2021/01/13 14:00:32;;;;;;;40.57;15.73;;;0.20;99.90;;;;;;4409413;28;658844;-68
2021/01/13 14:03:19;;;;;;;55.50;21.47;;;0.10;99.90;;;;;;4390676;28;658574;-67
2021/01/13 14:06:07;;;;;;;56.53;19.40;;;-0.10;99.90;;;;;;4402043;28;659474;-68
2021/01/13 14:08:54;;;;;;;53.60;20.40;;;-0.20;99.90;;;;;;4392685;28;661567;-68
2021/01/13 14:11:41;;;;;;;51.07;21.07;;;-0.10;99.90;;;;;;4402983;28;660727;-67
2021/01/13 14:14:29;;;;;;;53.80;18.90;;;-0.30;99.90;;;;;;4398739;28;660030;-68
2021/01/13 14:17:16;;;;;;;50.90;19.93;;;-0.40;99.90;;;;;;4409884;28;660476;-68
2021/01/13 14:20:04;;;;;;;50.17;20.73;;;-0.30;99.90;;;;;;4401315;28;659540;-67
2021/01/13 14:22:52;;;;;;;38.53;14.17;;;-0.30;99.90;;;;;;4407023;28;660897;-67
2021/01/13 14:25:39;;;;;;;50.33;20.17;;;-0.10;99.90;;;;;;4386787;28;660203;-68
2021/01/13 14:28:26;;;;;;;33.83;13.00;;;-0.20;99.90;;;;;;4400665;28;660740;-67